createdAt,value
2024-03-12T00:00:29.896Z,99975.88
2024-03-12T00:02:57.708Z,99983.78
2024-03-12T00:05:25.534Z,99986.84
2024-03-12T00:07:53.249Z,99987.44
2024-03-12T00:10:21.328Z,99990.13
2024-03-12T00:12:52.902Z,99982.09
2024-03-12T00:15:22.770Z,99977.78
2024-03-12T00:17:51.824Z,99985.16
2024-03-12T00:20:25.295Z,99986.97
2024-03-12T00:22:53.924Z,99999.22
2024-03-12T00:25:22.211Z,99998.63
2024-03-12T00:27:51.622Z,99997.34
2024-03-12T00:30:20.923Z,99993.69
2024-03-12T00:32:50.374Z,100003.38
2024-03-12T00:35:18.127Z,99993.25
2024-03-12T00:37:48.088Z,99997.78
2024-03-12T00:40:17.884Z,100005.84
2024-03-12T00:42:46.053Z,99992.84
2024-03-12T00:45:26.381Z,100013.50
2024-03-12T00:47:55.021Z,100005.06
2024-03-12T00:50:24.685Z,100013.50
2024-03-12T00:52:54.290Z,100014.47
2024-03-12T00:55:22.175Z,100009.56
2024-03-12T00:57:51.235Z,100005.84
2024-03-12T01:00:26.487Z,100009.56
2024-03-12T01:02:55.858Z,100016.59
2024-03-12T01:05:25.633Z,100014.53
2024-03-12T01:07:54.692Z,100021.16
2024-03-12T01:10:22.934Z,100017.38
2024-03-12T01:12:51.121Z,100026.13
2024-03-12T01:15:20.804Z,100018.69
2024-03-12T01:17:49.673Z,100020.53
2024-03-12T01:20:20.169Z,100030.84
2024-03-12T01:22:48.063Z,100030.66
2024-03-12T01:25:16.368Z,100028.81
2024-03-12T01:27:43.826Z,100034.38
2024-03-12T01:30:17.452Z,100031.25
2024-03-12T01:32:47.166Z,100024.00
2024-03-12T01:35:15.261Z,100027.47
2024-03-12T01:37:44.510Z,100027.69
2024-03-12T01:40:22.819Z,100025.22
2024-03-12T01:42:51.524Z,100035.34
2024-03-12T01:45:21.918Z,100035.09
2024-03-12T01:47:52.018Z,100030.78
2024-03-12T01:50:20.208Z,100032.50
2024-03-12T01:52:48.271Z,100039.88
2024-03-12T01:55:17.625Z,100033.94
2024-03-12T01:57:47.350Z,100030.22
2024-03-12T02:00:16.092Z,100031.47
2024-03-12T02:02:44.864Z,100038.63
2024-03-12T02:05:14.532Z,100036.84
2024-03-12T02:07:46.726Z,100032.03
2024-03-12T02:10:15.388Z,100037.22
2024-03-12T02:12:45.237Z,100037.22
2024-03-12T02:15:13.817Z,100041.78
2024-03-12T02:17:42.064Z,100042.50
2024-03-12T02:20:10.915Z,100036.13
2024-03-12T02:22:40.022Z,100035.06
2024-03-12T02:25:11.674Z,100042.94
2024-03-12T02:27:40.938Z,100037.91
2024-03-12T02:30:11.228Z,100043.97
2024-03-12T02:32:40.447Z,100044.84
2024-03-12T02:35:11.278Z,100046.56
2024-03-12T02:37:40.088Z,100047.63
2024-03-12T02:40:14.638Z,100047.06
2024-03-12T02:42:43.629Z,100045.78
2024-03-12T02:45:15.635Z,100048.13
2024-03-12T02:47:44.220Z,100054.19
2024-03-12T02:50:12.857Z,100057.19
2024-03-12T02:52:42.802Z,100053.81
2024-03-12T02:55:11.974Z,100058.00
2024-03-12T02:57:39.600Z,100061.84
2024-03-12T03:00:12.701Z,100071.47
2024-03-12T03:02:40.764Z,100071.91
2024-03-12T03:05:11.055Z,100068.13
2024-03-12T03:07:38.949Z,100072.63
2024-03-12T03:10:07.470Z,100085.13
2024-03-12T03:12:36.557Z,100084.66
2024-03-12T03:15:05.021Z,100081.22
2024-03-12T03:17:32.634Z,100083.13
2024-03-12T03:20:00.192Z,100084.22
2024-03-12T03:22:29.063Z,100076.78
2024-03-12T03:24:56.717Z,100083.06
2024-03-12T03:27:24.825Z,100086.75
2024-03-12T03:29:57.863Z,100086.38
2024-03-12T03:32:25.415Z,100088.25
2024-03-12T03:34:53.599Z,100079.78
2024-03-12T03:37:21.778Z,100085.97
2024-03-12T03:39:49.526Z,100087.22
2024-03-12T03:42:17.282Z,100087.25
2024-03-12T03:44:44.791Z,100096.63
2024-03-12T03:47:13.853Z,100086.59
2024-03-12T03:49:41.393Z,100092.50
2024-03-12T03:52:09.008Z,100093.00
2024-03-12T03:54:37.198Z,100096.94
2024-03-12T03:57:04.789Z,100094.69
2024-03-12T03:59:32.352Z,100093.44
2024-03-12T04:02:00.415Z,100100.97
2024-03-12T04:04:28.335Z,100094.69
2024-03-12T04:06:56.042Z,100105.19
2024-03-12T04:09:23.856Z,100107.28
2024-03-12T04:11:51.400Z,100108.34
2024-03-12T04:14:19.714Z,100112.66
2024-03-12T04:16:47.150Z,100120.31
2024-03-12T04:19:15.037Z,100115.34
2024-03-12T04:21:44.950Z,100124.44
2024-03-12T04:24:14.733Z,100124.22
2024-03-12T04:26:42.328Z,100129.13
2024-03-12T04:29:11.420Z,100126.91
2024-03-12T04:31:40.704Z,100134.91
2024-03-12T04:34:09.739Z,100131.25
2024-03-12T04:36:37.778Z,100148.41
2024-03-12T04:39:32.774Z,100155.81
2024-03-12T04:42:02.956Z,100153.72
2024-03-12T04:44:30.903Z,100156.88
2024-03-12T04:46:58.441Z,100153.03
2024-03-12T04:49:26.192Z,100153.34
2024-03-12T04:51:54.257Z,100154.63
2024-03-12T04:54:23.338Z,100162.28
2024-03-12T04:56:51.814Z,100162.50
2024-03-12T04:59:19.446Z,100161.44
2024-03-12T05:01:49.448Z,100165.56
2024-03-12T05:04:22.552Z,100164.97
2024-03-12T05:06:51.709Z,100175.50
2024-03-12T05:09:19.624Z,100174.25
2024-03-12T05:11:49.234Z,100180.25
2024-03-12T05:14:17.575Z,100174.44
2024-03-12T05:16:44.956Z,100176.97
2024-03-12T05:19:13.144Z,100181.91
2024-03-12T05:21:41.077Z,100192.81
2024-03-12T05:24:08.779Z,100198.00
2024-03-12T05:26:44.961Z,100197.66
2024-03-12T05:29:14.141Z,100197.03
2024-03-12T05:31:41.959Z,100205.09
2024-03-12T05:34:17.177Z,100198.88
2024-03-12T05:36:49.408Z,100207.97
2024-03-12T05:39:21.742Z,100212.94
2024-03-12T05:42:11.086Z,100207.94
2024-03-12T05:44:57.856Z,100205.69
2024-03-12T05:47:44.692Z,100216.66
2024-03-12T05:50:13.064Z,100218.50
2024-03-12T05:52:40.861Z,100217.25
2024-03-12T05:55:08.872Z,100214.53
2024-03-12T05:57:36.944Z,100226.31
2024-03-12T06:00:07.938Z,100229.03
2024-03-12T06:02:35.429Z,100227.13
2024-03-12T06:05:02.934Z,100234.44
2024-03-12T06:07:30.454Z,100236.69
2024-03-12T06:09:58.030Z,100238.59
2024-03-12T06:12:25.685Z,100245.59
2024-03-12T06:14:53.408Z,100249.31
2024-03-12T06:17:22.459Z,100248.53
2024-03-12T06:19:50.149Z,100251.81
2024-03-12T06:22:18.214Z,100248.47
2024-03-12T06:24:49.178Z,100255.06
2024-03-12T06:27:19.275Z,100260.50
2024-03-12T06:29:50.654Z,100267.25
2024-03-12T06:32:20.491Z,100262.75
2024-03-12T06:34:49.942Z,100269.81
2024-03-12T06:37:17.692Z,100273.09
2024-03-12T06:39:45.979Z,100275.13
2024-03-12T06:42:14.238Z,100280.31
2024-03-12T06:44:44.878Z,100281.16
2024-03-12T06:47:12.638Z,100280.38
2024-03-12T06:49:45.375Z,100284.66
2024-03-12T06:52:14.722Z,100291.88
2024-03-12T06:54:42.460Z,100286.13
2024-03-12T06:57:12.088Z,100292.31
2024-03-12T06:59:41.285Z,100299.78
2024-03-12T07:02:09.901Z,100306.78
2024-03-12T07:04:44.599Z,100309.13
2024-03-12T07:07:14.798Z,100305.63
2024-03-12T07:09:43.639Z,100311.97
2024-03-12T07:12:11.216Z,100316.78
2024-03-12T07:14:42.839Z,100312.28
2024-03-12T07:17:11.243Z,100326.56
2024-03-12T07:19:39.486Z,100324.06
2024-03-12T07:22:08.661Z,100324.84
2024-03-12T07:24:37.914Z,100325.00
2024-03-12T07:27:05.889Z,100326.72
2024-03-12T07:29:34.592Z,100327.16
2024-03-12T07:32:03.333Z,100330.44
2024-03-12T07:34:31.562Z,100337.75
2024-03-12T07:36:59.250Z,100335.28
2024-03-12T07:39:32.795Z,100330.00
2024-03-12T07:42:06.218Z,100339.34
2024-03-12T07:44:34.446Z,100336.66
2024-03-12T07:47:01.922Z,100346.22
2024-03-12T07:49:29.768Z,100348.09
2024-03-12T07:51:57.394Z,100350.75
2024-03-12T07:54:25.266Z,100347.06
2024-03-12T07:56:52.833Z,100351.59
2024-03-12T07:59:23.803Z,100348.72
2024-03-12T08:01:54.361Z,100350.31
2024-03-12T08:04:23.211Z,100352.41
2024-03-12T08:06:50.991Z,100349.75
2024-03-12T08:09:19.546Z,100349.50
2024-03-12T08:11:48.606Z,100355.34
2024-03-12T08:14:16.996Z,100354.50
2024-03-12T08:16:45.905Z,100363.88
2024-03-12T08:19:13.998Z,100364.66
2024-03-12T08:21:41.794Z,100366.09
2024-03-12T08:24:11.991Z,100357.56
2024-03-12T08:26:39.886Z,100364.66
2024-03-12T08:29:08.535Z,100360.28
2024-03-12T08:31:44.847Z,100360.25
2024-03-12T08:34:20.360Z,100366.94
2024-03-12T08:36:48.304Z,100363.38
2024-03-12T08:39:16.697Z,100357.59
2024-03-12T08:41:45.313Z,100363.34
2024-03-12T08:44:15.306Z,100369.22
2024-03-12T08:46:42.951Z,100378.13
2024-03-12T08:49:12.772Z,100369.00
2024-03-12T08:51:42.725Z,100379.13
2024-03-12T08:54:11.140Z,100385.78
2024-03-12T08:56:38.712Z,100383.50
2024-03-12T08:59:06.943Z,100377.25
2024-03-12T09:01:34.684Z,100382.47
2024-03-12T09:04:03.386Z,100384.72
2024-03-12T09:06:33.561Z,100384.94
2024-03-12T09:09:02.670Z,100387.59
2024-03-12T09:11:30.411Z,100393.84
2024-03-12T09:13:57.982Z,100391.47
2024-03-12T09:16:25.540Z,100391.16
2024-03-12T09:18:54.730Z,100390.53
2024-03-12T09:21:23.779Z,100389.66
2024-03-12T09:23:57.156Z,100394.88
2024-03-12T09:26:31.284Z,100409.47
2024-03-12T09:29:00.894Z,100401.31
2024-03-12T09:31:28.991Z,100411.22
2024-03-12T09:33:57.821Z,100415.16
2024-03-12T09:36:25.767Z,100417.03
2024-03-12T09:38:54.605Z,100416.59
2024-03-12T09:41:25.354Z,100421.38
2024-03-12T09:43:55.777Z,100420.06
2024-03-12T09:46:23.688Z,100422.19
2024-03-12T09:48:53.486Z,100422.41
2024-03-12T09:51:22.072Z,100425.72
2024-03-12T09:53:50.140Z,100425.53
2024-03-12T09:56:19.032Z,100435.22
2024-03-12T09:58:49.457Z,100430.47
2024-03-12T10:01:19.779Z,100431.94
2024-03-12T10:03:48.261Z,100436.72
2024-03-12T10:06:17.703Z,100446.44
2024-03-12T10:08:46.146Z,100441.47
2024-03-12T10:11:20.980Z,100441.03
2024-03-12T10:13:56.882Z,100446.44
2024-03-12T10:16:30.029Z,100437.13
2024-03-12T10:19:12.422Z,100444.78
2024-03-12T10:21:41.961Z,100442.38
2024-03-12T10:24:12.268Z,100451.75
2024-03-12T10:26:40.304Z,100453.88
2024-03-12T10:29:12.592Z,100454.69
2024-03-12T10:31:44.822Z,100453.06
2024-03-12T10:34:14.890Z,100455.72
2024-03-12T10:36:44.268Z,100458.03
2024-03-12T10:39:14.390Z,100459.66
2024-03-12T10:41:44.274Z,100450.72
2024-03-12T10:44:12.891Z,100448.06
2024-03-12T10:46:44.937Z,100455.47
2024-03-12T10:49:13.887Z,100452.22
2024-03-12T10:51:43.998Z,100458.00
2024-03-12T10:54:15.236Z,100449.56
2024-03-12T10:56:43.469Z,100458.66
2024-03-12T10:59:12.196Z,100454.31
2024-03-12T11:01:42.781Z,100458.06
2024-03-12T11:04:11.753Z,100449.13
2024-03-12T11:06:40.760Z,100456.78
2024-03-12T11:09:09.771Z,100453.47
2024-03-12T11:11:37.892Z,100454.50
2024-03-12T11:14:08.037Z,100462.16
2024-03-12T11:16:37.110Z,100458.41
2024-03-12T11:19:20.215Z,100452.56
2024-03-12T11:21:50.655Z,100451.97
2024-03-12T11:24:28.382Z,100451.56
2024-03-12T11:26:56.676Z,100447.38
2024-03-12T11:29:39.032Z,100444.53
2024-03-12T11:32:10.793Z,100447.06
2024-03-12T11:34:43.543Z,100440.31
2024-03-12T11:37:18.109Z,100432.97
2024-03-12T11:39:45.586Z,100437.63
2024-03-12T11:42:16.075Z,100435.06
2024-03-12T11:44:50.047Z,100435.91
2024-03-12T11:47:31.771Z,100438.91
2024-03-12T11:50:04.735Z,100439.50
2024-03-12T11:52:34.439Z,100444.03
2024-03-12T11:55:04.832Z,100436.66
2024-03-12T11:57:33.288Z,100447.22
2024-03-12T12:00:01.205Z,100451.19
2024-03-12T12:02:29.181Z,100463.44
2024-03-12T12:04:58.930Z,100471.72
2024-03-12T12:07:29.034Z,100474.69
2024-03-12T12:09:56.872Z,100483.59
2024-03-12T12:12:24.500Z,100496.06
2024-03-12T12:14:54.136Z,100493.41
2024-03-12T12:17:26.781Z,100505.94
2024-03-12T12:20:14.859Z,100505.69
2024-03-12T12:22:47.010Z,100496.13
2024-03-12T12:25:17.099Z,100498.94
2024-03-12T12:27:44.984Z,100489.38
2024-03-12T12:30:15.677Z,100487.03
2024-03-12T12:32:43.504Z,100496.63
2024-03-12T12:35:15.063Z,100499.22
2024-03-12T12:37:47.081Z,100496.06
2024-03-12T12:40:17.892Z,100495.09
2024-03-12T12:42:46.855Z,100497.53
2024-03-12T12:45:15.705Z,100501.69
2024-03-12T12:47:49.959Z,100502.78
2024-03-12T12:50:28.544Z,100502.66
2024-03-12T12:52:59.138Z,100497.28
2024-03-12T12:55:27.324Z,100501.59
2024-03-12T12:58:02.046Z,100491.13
2024-03-12T13:00:30.142Z,100488.47
2024-03-12T13:03:13.188Z,100492.38
2024-03-12T13:05:42.461Z,100494.72
2024-03-12T13:08:30.778Z,100498.22
2024-03-12T13:11:01.857Z,100499.88
2024-03-12T13:13:30.055Z,100494.91
2024-03-12T13:15:58.197Z,100500.06
2024-03-12T13:18:25.736Z,100494.91
2024-03-12T13:20:53.917Z,100509.44
2024-03-12T13:23:21.386Z,100502.97
2024-03-12T13:25:50.267Z,100501.09
2024-03-12T13:28:18.831Z,100499.00
2024-03-12T13:30:47.696Z,100495.16
2024-03-12T13:33:16.280Z,100494.44
2024-03-12T13:35:44.812Z,100505.03
2024-03-12T13:38:15.296Z,100499.81
2024-03-12T13:40:43.035Z,100497.16
2024-03-12T13:43:12.508Z,100503.16
2024-03-12T13:45:40.895Z,100502.38
2024-03-12T13:48:08.706Z,100503.84
2024-03-12T13:50:36.330Z,100505.28
2024-03-12T13:53:04.372Z,100506.53
2024-03-12T13:55:32.017Z,100501.56
2024-03-12T13:57:59.689Z,100497.81
2024-03-12T14:00:29.009Z,100502.75
2024-03-12T14:02:56.781Z,100501.53
2024-03-12T14:05:25.810Z,100503.78
2024-03-12T14:07:53.594Z,100497.81
2024-03-12T14:10:21.475Z,100498.66
2024-03-12T14:12:49.097Z,100499.06
2024-03-12T14:15:17.174Z,100505.69
2024-03-12T14:17:46.085Z,100496.97
2024-03-12T14:20:16.498Z,100501.16
2024-03-12T14:22:45.347Z,100509.44
2024-03-12T14:25:13.982Z,100512.53
2024-03-12T14:27:41.798Z,100513.13
2024-03-12T14:30:10.529Z,100519.38
2024-03-12T14:32:38.368Z,100514.78
2024-03-12T14:35:08.406Z,100514.19
2024-03-12T14:37:36.383Z,100517.72
2024-03-12T14:40:05.980Z,100523.31
2024-03-12T14:42:34.106Z,100527.03
2024-03-12T14:45:01.962Z,100527.25
2024-03-12T14:47:29.694Z,100523.91
2024-03-12T14:49:57.265Z,100528.72
2024-03-12T14:52:26.720Z,100525.19
2024-03-12T14:54:55.045Z,100527.44
2024-03-12T14:57:22.737Z,100527.19
2024-03-12T14:59:50.430Z,100525.59
2024-03-12T15:02:18.617Z,100519.38
2024-03-12T15:04:48.068Z,100524.13
2024-03-12T15:07:16.844Z,100526.19
2024-03-12T15:09:48.567Z,100521.66
2024-03-12T15:12:17.513Z,100523.09
2024-03-12T15:14:45.134Z,100532.84
2024-03-12T15:17:15.394Z,100526.59
2024-03-12T15:19:46.275Z,100527.25
2024-03-12T15:22:14.096Z,100521.84
2024-03-12T15:24:42.208Z,100521.00
2024-03-12T15:27:12.372Z,100520.22
2024-03-12T15:29:40.116Z,100527.63
2024-03-12T15:32:08.288Z,100519.16
2024-03-12T15:34:37.416Z,100519.38
2024-03-12T15:37:05.408Z,100515.41
2024-03-12T15:39:33.192Z,100513.78
2024-03-12T15:42:00.795Z,100515.19
2024-03-12T15:44:29.685Z,100511.50
2024-03-12T15:46:58.384Z,100513.56
2024-03-12T15:49:26.032Z,100512.91
2024-03-12T15:51:53.684Z,100508.78
2024-03-12T15:54:21.592Z,100516.03
2024-03-12T15:56:49.651Z,100513.78
2024-03-12T15:59:17.270Z,100509.66
2024-03-12T16:01:48.719Z,100513.06
2024-03-12T16:04:16.890Z,100504.22
2024-03-12T16:06:45.876Z,100506.09
2024-03-12T16:09:15.523Z,100508.78
2024-03-12T16:11:43.109Z,100506.09
2024-03-12T16:14:12.024Z,100502.78
2024-03-12T16:16:40.692Z,100501.34
2024-03-12T16:19:11.262Z,100502.78
2024-03-12T16:21:38.948Z,100504.41
2024-03-12T16:24:06.961Z,100502.03
2024-03-12T16:26:34.678Z,100504.78
2024-03-12T16:29:02.690Z,100501.88
2024-03-12T16:31:30.227Z,100496.44
2024-03-12T16:33:58.046Z,100507.28
2024-03-12T16:36:31.155Z,100501.09
2024-03-12T16:38:59.544Z,100506.31
2024-03-12T16:41:27.417Z,100502.13
2024-03-12T16:43:55.743Z,100504.47
2024-03-12T16:46:23.394Z,100505.47
2024-03-12T16:48:51.005Z,100503.19
2024-03-12T16:51:18.608Z,100501.72
2024-03-12T16:53:47.718Z,100500.28
2024-03-12T16:58:47.144Z,100509.84
2024-03-12T17:01:17.000Z,100512.13
2024-03-12T17:03:45.205Z,100507.16
2024-03-12T17:06:13.979Z,100509.63
2024-03-12T17:08:41.970Z,100513.75
2024-03-12T17:11:11.597Z,100507.16
2024-03-12T17:13:40.116Z,100509.00
2024-03-12T17:16:08.865Z,100512.56
2024-03-12T17:18:36.636Z,100517.94
2024-03-12T17:21:04.685Z,100519.78
2024-03-12T17:23:33.728Z,100519.97
2024-03-12T17:26:02.590Z,100517.91
2024-03-12T17:28:32.334Z,100516.03
2024-03-12T17:31:00.489Z,100513.56
2024-03-12T17:33:28.330Z,100517.94
2024-03-12T17:35:57.009Z,100513.56
2024-03-12T17:38:27.072Z,100511.91
2024-03-12T17:40:59.625Z,100513.34
2024-03-12T17:43:27.978Z,100525.16
2024-03-12T17:45:57.911Z,100521.22
2024-03-12T17:48:29.073Z,100526.41
2024-03-12T17:50:58.529Z,100527.25
2024-03-12T17:53:27.850Z,100518.75
2024-03-12T17:55:55.930Z,100526.19
2024-03-12T17:58:24.824Z,100535.31
2024-03-12T18:00:53.288Z,100535.06
2024-03-12T18:03:23.966Z,100533.69
2024-03-12T18:05:55.246Z,100527.88
2024-03-12T18:08:25.349Z,100532.22
2024-03-12T18:10:57.544Z,100528.28
2024-03-12T18:13:25.671Z,100533.91
2024-03-12T18:15:54.733Z,100535.94
2024-03-12T18:18:24.132Z,100536.38
2024-03-12T18:20:52.454Z,100534.09
2024-03-12T18:23:20.693Z,100535.06
2024-03-12T18:25:51.179Z,100539.06
2024-03-12T18:28:18.942Z,100535.13
2024-03-12T18:30:46.575Z,100538.38
2024-03-12T18:33:14.330Z,100538.41
2024-03-12T18:35:43.767Z,100533.56
2024-03-12T18:38:11.576Z,100538.16
2024-03-12T18:40:39.302Z,100539.81
2024-03-12T18:43:08.661Z,100538.00
2024-03-12T18:45:39.944Z,100537.50
2024-03-12T18:48:10.248Z,100537.50
2024-03-12T18:50:38.671Z,100540.84
2024-03-12T18:53:08.510Z,100552.63
2024-03-12T18:55:36.702Z,100545.25
2024-03-12T18:58:05.198Z,100553.59
2024-03-12T19:00:36.731Z,100546.25
2024-03-12T19:03:13.324Z,100551.66
2024-03-12T19:05:41.701Z,100558.50
2024-03-12T19:08:11.852Z,100559.13
2024-03-12T19:10:39.948Z,100558.66
2024-03-12T19:13:11.057Z,100558.63
2024-03-12T19:15:43.844Z,100558.19
2024-03-12T19:18:14.567Z,100564.84
2024-03-12T19:20:43.012Z,100556.34
2024-03-12T19:23:12.366Z,100559.31
2024-03-12T19:25:40.352Z,100561.97
2024-03-12T19:28:08.774Z,100565.09
2024-03-12T19:30:36.849Z,100562.31
2024-03-12T19:33:06.311Z,100562.56
2024-03-12T19:35:34.278Z,100562.03
2024-03-12T19:38:02.404Z,100559.88
2024-03-12T19:40:32.186Z,100567.91
2024-03-12T19:43:00.524Z,100563.69
2024-03-12T19:45:29.303Z,100565.78
2024-03-12T19:47:58.163Z,100565.09
2024-03-12T19:50:26.764Z,100565.81
2024-03-12T19:52:56.510Z,100567.50
2024-03-12T19:55:26.897Z,100565.41
2024-03-12T19:57:57.197Z,100559.31
2024-03-12T20:00:30.363Z,100558.53
2024-03-12T20:03:00.188Z,100561.94
2024-03-12T20:05:30.985Z,100567.78
2024-03-12T20:07:59.932Z,100562.72
2024-03-12T20:10:27.500Z,100562.00
2024-03-12T20:12:56.974Z,100559.84
2024-03-12T20:15:25.022Z,100557.84
2024-03-12T20:17:52.826Z,100560.78
2024-03-12T20:20:22.426Z,100561.66
2024-03-12T20:22:52.035Z,100554.91
2024-03-12T20:25:20.688Z,100557.75
2024-03-12T20:27:52.780Z,100553.84
2024-03-12T20:30:23.172Z,100552.59
2024-03-12T20:32:53.081Z,100549.19
2024-03-12T20:35:20.793Z,100546.44
2024-03-12T20:37:48.994Z,100551.25
2024-03-12T20:40:16.779Z,100558.72
2024-03-12T20:42:44.618Z,100551.34
2024-03-12T20:45:12.429Z,100547.59
2024-03-12T20:47:41.873Z,100549.69
2024-03-12T20:50:10.327Z,100545.78
2024-03-12T20:52:39.328Z,100544.81
2024-03-12T20:55:08.348Z,100537.84
2024-03-12T20:57:36.743Z,100546.47
2024-03-12T21:00:17.376Z,100537.28
2024-03-12T21:02:47.203Z,100540.16
2024-03-12T21:05:16.080Z,100536.72
2024-03-12T21:07:44.461Z,100537.19
2024-03-12T21:10:12.733Z,100531.34
2024-03-12T21:12:43.140Z,100531.94
2024-03-12T21:15:11.104Z,100530.25
2024-03-12T21:17:38.867Z,100533.66
2024-03-12T21:20:14.033Z,100531.09
2024-03-12T21:22:42.893Z,100525.25
2024-03-12T21:25:11.330Z,100531.94
2024-03-12T21:27:39.086Z,100520.34
2024-03-12T21:30:10.222Z,100530.16
2024-03-12T21:32:38.821Z,100530.19
2024-03-12T21:35:09.367Z,100526.16
2024-03-12T21:37:39.249Z,100528.13
2024-03-12T21:40:11.886Z,100513.28
2024-03-12T21:42:40.013Z,100514.94
2024-03-12T21:45:10.722Z,100512.66
2024-03-12T21:47:38.933Z,100506.69
2024-03-12T21:50:09.587Z,100501.63
2024-03-12T21:52:37.751Z,100500.19
2024-03-12T21:55:07.443Z,100496.06
2024-03-12T21:57:38.598Z,100490.00
2024-03-12T22:00:12.198Z,100490.72
2024-03-12T22:02:40.229Z,100484.97
2024-03-12T22:05:09.509Z,100488.00
2024-03-12T22:07:38.225Z,100487.66
2024-03-12T22:10:09.005Z,100479.47
2024-03-12T22:12:36.879Z,100480.59
2024-03-12T22:15:07.982Z,100479.13
2024-03-12T22:17:37.316Z,100475.84
2024-03-12T22:20:06.523Z,100485.09
2024-03-12T22:22:38.339Z,100483.56
2024-03-12T22:25:10.272Z,100485.75
2024-03-12T22:27:37.966Z,100477.41
2024-03-12T22:30:07.883Z,100481.88
2024-03-12T22:32:35.491Z,100482.00
2024-03-12T22:35:03.113Z,100476.28
2024-03-12T22:37:31.856Z,100482.66
2024-03-12T22:40:01.273Z,100478.13
2024-03-12T22:42:31.247Z,100475.50
2024-03-12T22:44:59.412Z,100468.22
2024-03-12T22:47:28.646Z,100469.19
2024-03-12T22:49:57.001Z,100473.00
2024-03-12T22:52:26.016Z,100467.94
2024-03-12T22:54:56.316Z,100457.31
2024-03-12T22:57:27.755Z,100465.28
2024-03-12T22:59:55.672Z,100461.88
2024-03-12T23:02:23.567Z,100464.88
2024-03-12T23:04:52.341Z,100460.97
2024-03-12T23:07:20.702Z,100452.34
2024-03-12T23:09:49.205Z,100457.38
2024-03-12T23:12:18.161Z,100443.66
2024-03-12T23:14:49.898Z,100441.75
2024-03-12T23:17:17.461Z,100441.13
2024-03-12T23:19:47.048Z,100433.06
2024-03-12T23:22:16.583Z,100430.97
2024-03-12T23:24:44.808Z,100430.00
2024-03-12T23:27:12.460Z,100422.47
2024-03-12T23:29:40.303Z,100420.09
2024-03-12T23:32:12.600Z,100416.09
2024-03-12T23:34:40.142Z,100419.03
2024-03-12T23:37:10.050Z,100415.44
2024-03-12T23:39:38.347Z,100417.34
2024-03-12T23:42:06.193Z,100414.47
2024-03-12T23:44:36.704Z,100415.28
2024-03-12T23:47:05.560Z,100413.38
2024-03-12T23:49:36.537Z,100409.63
2024-03-12T23:52:06.063Z,100407.50
2024-03-12T23:54:33.667Z,100406.34
2024-03-12T23:57:01.658Z,100407.75
2024-03-12T23:59:29.407Z,100394.16
